This is the latest recevied weather packets stored in our database for station/object VK5TRM-14. If no packets are shown the sender has not sent any weather packets the latest 10 day(s).
| Time | Temp. | Humidity | Pressure | Rain* | Wind** | Luminosity | Snow |
|---|---|---|---|---|---|---|---|
| 1777864506 | 20° C | 52% | 1014.2 hPa | 0 mm | - | - | - |
| 1777863606 | 18.89° C | 58% | 1014.6 hPa | 0 mm | - | - | - |
| 1777862705 | 18.89° C | 58% | 1014.6 hPa | 0 mm | - | - | - |
| 1777861805 | 19.44° C | 56% | 1014.7 hPa | 0 mm | - | - | - |
| 1777860905 | 19.44° C | 56% | 1014.7 hPa | 0 mm | - | - | - |
| 1777860005 | 18.89° C | 59% | 1015 hPa | 0 mm | - | - | - |
| 1777859105 | 18.89° C | 59% | 1015 hPa | 0 mm | - | - | - |
| 1777858205 | 17.22° C | 62% | 1015 hPa | 0 mm | - | - | - |
| 1777857305 | 17.22° C | 62% | 1015 hPa | 0 mm | - | - | - |
| 1777856405 | 16.67° C | 63% | 1014.8 hPa | 0 mm | - | - | - |
| 1777855505 | 16.67° C | 63% | 1014.8 hPa | 0 mm | - | - | - |
| 1777854605 | 16.67° C | 65% | 1014.6 hPa | 0 mm | - | - | - |
| 1777853705 | 16.67° C | 65% | 1014.6 hPa | 0 mm | - | - | - |
| 1777852806 | 15.56° C | 68% | 1014.5 hPa | 0.25 mm | - | - | - |
| 1777851906 | 15.56° C | 68% | 1014.5 hPa | 0.25 mm | - | - | - |
| 1777851005 | 14.44° C | 70% | 1014.3 hPa | 0.25 mm | - | - | - |
| 1777850105 | 14.44° C | 70% | 1014.3 hPa | 0.25 mm | - | - | - |
| 1777849205 | 13.33° C | 75% | 1014.1 hPa | 0.25 mm | - | - | - |
| 1777848305 | 13.33° C | 75% | 1014.1 hPa | 0.25 mm | - | - | - |
| 1777847405 | 11.67° C | 80% | 1013.9 hPa | 0.25 mm | - | - | - |
| 1777846505 | 11.67° C | 80% | 1013.9 hPa | 0.25 mm | - | - | - |
| 1777845605 | 11.11° C | 82% | 1013.6 hPa | 0.25 mm | - | - | - |
| 1777844705 | 11.11° C | 82% | 1013.6 hPa | 0.25 mm | - | - | - |
| 1777843805 | 11.11° C | 83% | 1013.4 hPa | 0.25 mm | - | - | - |
| 1777842905 | 11.11° C | 83% | 1013.4 hPa | 0.25 mm | - | - | - |
* Rain since midnight (hover to see other rain measurements)
** Current wind speed in m/s (hover to see current wind gust speed)